LFSBLIMN

Guest
Details From LFSB - Bale-Mulhouse
To LIMN - CAMERI
Flight Number -
Tags generated
Created
Modified
Stats Distance 133 nm / 246 km
Max Altitude 9,100 ft / 2,774 m
Waypoints 3
Social Downloads 0
Likes 0
Share VATSIM

Download

Looking for another format? Having issues loading an existing format? Contact us
Advertisement - Login to hide

Notes

Basic altitude profile: - Ascent Rate: 2500ft/min - Ascent Speed: 250kts - Cruise Altitude: 35000ft - Cruise Speed: 420kts - Descent Rate: 1500ft/min - Descent Speed: 250kts Options: - Use NATs: yes - Use PACOTS: yes - Use low airways: yes - Use high airways: yes

Route

LFSB ROTOS LIMN

ID Type Via Altitude Latitude Longitude Leg Dist Tot Dist Heading (true) Name
O LFSB APT - 0 ft / 0 m 47.59581˚ 7.52481˚ - 0 nm - Bale-Mulhouse
ROTOS FIX - 9,100 ft / 2,774 m 47.19000˚ 7.72528˚ 25 nm 25 nm 161° / 162° -
O LIMN APT - 0 ft / 0 m 45.53106˚ 8.66905˚ 107 nm 132 nm 158° / 159° CAMERI

Altitude Profile

Advertisement - Login to hide

LFSB

Details ICAO LFSB (MLH)
Name Bale-Mulhouse
Region France
Timezone Europe/Paris (UTC+1.0)
Stats Elevation 885 ft / 270 m (AMSL)
Location 47.595810° 7.524806°
Runways 2
Magnetic Variation 2.084° E

METAR

LFSB 110730Z 12006KT 9999 -RA NSC 07/05 Q0982 NOSIG

Decode

TAF

TAF LFSB 110500Z 1106/1206 12010KT 9999 FEW050 BKN070 TEMPO 1106/1115 4000 RA PROB30 TEMPO 1112/1115 2000 +RA BKN014 BECMG 1113/1115 20010G20KT BECMG 1122/1124 27015G25KT PROB40 TEMPO 1201/1206 3000 -DZRA FEW015 BKN020

Decode

Departure Runways

ID Width Length Bearing (true) Bearing (mag) Surface Threshold Offset Overrun Length
08 193 ft / 59 m 5,956 ft / 1,816 m 76.91° 74.83° Concrete 0 ft / 0 m 0 ft / 0 m
15 197 ft / 60 m 12,802 ft / 3,902 m 154.86° 152.78° Concrete 0 ft / 0 m 0 ft / 0 m
26 193 ft / 59 m 5,956 ft / 1,816 m 256.93° 254.85° Concrete 722 ft / 220 m 0 ft / 0 m
33 197 ft / 60 m 12,802 ft / 3,902 m 334.88° 332.80° Concrete 3,675 ft / 1,120 m 0 ft / 0 m

LIMN

Details ICAO LIMN
Name CAMERI
Region Italy
Timezone Europe/Rome (UTC+1.0)
Stats Elevation 586 ft / 179 m (AMSL)
Location 45.531059° 8.669050°
Runways 1
Magnetic Variation 2.361° E

METAR

LIMN 110655Z 25003KT 0800 -SG FZFG SCT005 BKN020 M01/M01 Q1000 RMK OVC VIS MIN 0800 BLK AMB

Decode

TAF

Not found

Destination Runways

ID Width Length Bearing (true) Bearing (mag) Surface Threshold Offset Overrun Length
17 94 ft / 29 m 9,824 ft / 2,994 m 167.60° 165.24° Asphalt 328 ft / 100 m 0 ft / 0 m
35 94 ft / 29 m 9,824 ft / 2,994 m 347.61° 345.25° Asphalt 265 ft / 81 m 0 ft / 0 m